Time;durP1;ratioP1;P1;durP2;ratioP2;P2;SDS_P1;SDS_P2;PMS_P1;PMS_P2;Temp;Humidity;BMP_temperature;BMP_pressure;BME280_temperature;BME280_humidity;BME280_pressure;Samples;Min_cycle;Max_cycle;Signal;HPM_P1;HPM_P2
2021/10/02 00:31:35;;;;;;;0.40;0.40;;;;;;;14.37;67.30;100189.22;5090463;28;20661;-72
2021/10/02 00:37:07;;;;;;;1.60;0.50;;;;;;;14.43;67.74;100182.34;5090415;28;20170;-73
2021/10/02 00:44:57;;;;;;;1.77;0.60;;;;;;;14.39;68.16;100185.00;5091007;28;20197;-73
2021/10/02 00:47:23;;;;;;;1.67;0.60;;;;;;;14.37;69.45;100183.72;5072489;28;20242;-72
2021/10/02 00:49:52;;;;;;;0.40;0.40;;;;;;;14.40;70.80;100186.59;5090707;28;20173;-72
2021/10/02 00:52:19;;;;;;;0.77;0.40;;;;;;;14.35;72.67;100191.53;5090597;28;20663;-72
2021/10/02 00:54:46;;;;;;;0.50;0.50;;;;;;;14.32;70.47;100175.69;5090537;28;20661;-72
2021/10/02 00:57:12;;;;;;;0.97;0.53;;;;;;;14.26;69.92;100177.88;5090527;28;20223;-72
2021/10/02 00:59:38;;;;;;;1.20;0.60;;;;;;;14.27;69.03;100183.03;5090633;28;20189;-72
2021/10/02 01:02:25;;;;;;;0.73;0.60;;;;;;;14.28;68.79;100175.59;5090616;28;20170;-72
2021/10/02 01:04:56;;;;;;;1.23;0.83;;;;;;;14.25;71.46;100170.78;5090282;28;20239;-72
2021/10/02 01:07:52;;;;;;;0.50;0.50;;;;;;;14.26;68.40;100172.38;5090289;28;20183;-72
2021/10/02 01:10:38;;;;;;;0.43;0.40;;;;;;;14.30;67.94;100179.59;5090331;28;20519;-72
2021/10/02 01:13:03;;;;;;;1.80;0.60;;;;;;;14.33;69.28;100177.31;5090424;28;20243;-72
2021/10/02 01:15:48;;;;;;;0.90;0.70;;;;;;;14.31;68.67;100169.41;5090136;28;20634;-72
2021/10/02 01:18:32;;;;;;;1.20;0.93;;;;;;;14.34;67.50;100167.94;5090726;28;20170;-72
2021/10/02 01:21:19;;;;;;;1.47;0.40;;;;;;;14.35;68.33;100169.53;5090432;28;20703;-72
2021/10/02 01:24:03;;;;;;;1.30;0.77;;;;;;;14.36;67.84;100171.13;5090028;28;20174;-72
2021/10/02 01:26:43;;;;;;;0.60;0.50;;;;;;;14.35;68.29;100162.09;5090334;28;20182;-73
2021/10/02 01:29:10;;;;;;;0.57;0.50;;;;;;;14.34;68.39;100163.25;5090194;28;20569;-72
2021/10/02 01:31:42;;;;;;;0.87;0.57;;;;;;;14.37;68.05;100159.00;5072063;28;20178;-72
2021/10/02 01:34:18;;;;;;;1.27;0.60;;;;;;;14.37;69.25;100153.50;5090398;28;20158;-72
2021/10/02 01:47:43;;;;;;;1.77;1.47;;;;;;;14.29;72.56;100150.50;5093919;28;20197;-73
2021/10/02 01:50:09;;;;;;;1.83;1.53;;;;;;;14.20;74.69;100147.09;5093409;28;20592;-73
2021/10/02 01:52:43;;;;;;;2.50;1.70;;;;;;;14.07;77.35;100156.47;5093637;28;20184;-73
2021/10/02 01:55:11;;;;;;;1.13;1.00;;;;;;;13.95;81.56;100228.66;5093472;28;20185;-72
2021/10/02 01:57:42;;;;;;;2.10;0.77;;;;;;;13.80;83.84;100141.44;5093409;28;20189;-73
2021/10/02 02:00:10;;;;;;;1.67;0.70;;;;;;;13.64;85.72;100135.78;5093426;28;20644;-73
2021/10/02 02:02:38;;;;;;;2.07;1.40;;;;;;;13.52;88.33;100132.19;5093372;28;20633;-73
2021/10/02 02:05:10;;;;;;;3.00;0.93;;;;;;;13.34;91.21;100134.31;5093110;28;20274;-73
2021/10/02 02:07:37;;;;;;;2.83;1.33;;;;;;;13.29;91.77;100138.06;5092966;28;20173;-72
2021/10/02 02:10:05;;;;;;;0.67;0.50;;;;;;;13.10;93.52;100135.78;5093370;28;20174;-72
2021/10/02 02:12:33;;;;;;;0.90;0.70;;;;;;;13.01;95.06;100135.03;5093236;28;20174;-73
2021/10/02 02:15:06;;;;;;;0.70;0.70;;;;;;;12.87;96.02;100140.00;5093160;28;20174;-73
2021/10/02 02:17:35;;;;;;;0.50;0.50;;;;;;;12.74;96.27;100139.13;5093051;28;20645;-73
2021/10/02 02:20:03;;;;;;;0.90;0.50;;;;;;;12.61;98.40;100128.44;5093057;28;20170;-72
2021/10/02 02:22:28;;;;;;;2.73;0.90;;;;;;;12.46;99.50;100141.56;5093033;28;20447;-73
2021/10/02 02:24:54;;;;;;;1.00;0.60;;;;;;;12.40;100.00;100139.34;5092719;28;20166;-73
2021/10/02 02:27:19;;;;;;;3.27;1.10;;;;;;;12.31;100.00;100141.34;5092824;28;20505;-73
2021/10/02 02:29:47;;;;;;;0.73;0.70;;;;;;;12.22;100.00;100133.16;5092846;28;20174;-72
2021/10/02 02:32:12;;;;;;;2.37;0.70;;;;;;;12.19;100.00;100147.50;5092843;28;20201;-73
2021/10/02 02:34:38;;;;;;;1.10;0.60;;;;;;;12.20;100.00;100152.66;5092581;28;20198;-73
2021/10/02 02:37:03;;;;;;;0.73;0.60;;;;;;;12.13;100.00;100151.56;5092803;28;20166;-73
2021/10/02 02:39:29;;;;;;;0.87;0.80;;;;;;;12.05;100.00;100147.72;5092734;28;20182;-73
2021/10/02 02:41:55;;;;;;;0.87;0.80;;;;;;;11.97;100.00;100147.75;5092815;28;20169;-73
2021/10/02 02:44:21;;;;;;;1.20;0.67;;;;;;;11.90;100.00;100149.06;5092614;28;20166;-73
2021/10/02 02:46:53;;;;;;;2.53;0.60;;;;;;;11.81;100.00;100142.81;5092523;28;20192;-73
2021/10/02 02:49:22;;;;;;;1.03;0.90;;;;;;;11.76;100.00;100148.44;5092526;28;20783;-73
2021/10/02 02:51:56;;;;;;;1.10;0.97;;;;;;;11.78;100.00;100139.91;5092474;28;20174;-73
2021/10/02 02:54:31;;;;;;;1.67;0.90;;;;;;;11.73;100.00;100143.63;5091598;28;20161;-72
2021/10/02 02:57:05;;;;;;;0.90;0.80;;;;;;;11.80;100.00;100141.22;5092462;28;20213;-73
2021/10/02 02:59:36;;;;;;;1.00;0.90;;;;;;;11.84;100.00;100136.69;5092211;28;20170;-73
2021/10/02 03:02:04;;;;;;;2.90;1.20;;;;;;;11.89;100.00;100135.72;5092315;28;20633;-73
2021/10/02 03:04:33;;;;;;;1.80;1.43;;;;;;;11.98;100.00;100135.66;5092018;28;20625;-73
2021/10/02 03:07:01;;;;;;;1.23;1.20;;;;;;;11.96;100.00;100140.66;5091850;28;20181;-73
2021/10/02 03:09:32;;;;;;;1.37;1.17;;;;;;;11.91;100.00;100153.41;5091995;28;20201;-73
2021/10/02 03:11:58;;;;;;;1.47;1.03;;;;;;;11.94;100.00;100143.75;5092171;28;20170;-72
2021/10/02 03:14:26;;;;;;;0.73;0.67;;;;;;;11.88;100.00;100150.53;5091763;28;20174;-73
2021/10/02 03:16:54;;;;;;;1.50;1.07;;;;;;;11.77;100.00;100150.06;5091855;28;20233;-72
2021/10/02 03:19:21;;;;;;;0.87;0.80;;;;;;;11.70;100.00;100148.94;5073526;28;20212;-73
2021/10/02 03:21:50;;;;;;;1.33;1.00;;;;;;;11.66;100.00;100156.19;5091889;28;20550;-73
2021/10/02 03:24:18;;;;;;;2.00;0.90;;;;;;;11.68;100.00;100162.94;5091547;28;20196;-73
2021/10/02 03:26:44;;;;;;;1.33;0.90;;;;;;;11.71;100.00;100158.75;5091905;28;20238;-73
2021/10/02 03:29:10;;;;;;;0.43;0.43;;;;;;;11.75;100.00;100156.97;5091592;28;20189;-73
2021/10/02 03:31:36;;;;;;;2.00;0.90;;;;;;;11.83;100.00;100147.97;5091830;28;20184;-73
2021/10/02 03:34:02;;;;;;;0.60;0.60;;;;;;;11.80;100.00;100149.41;5091580;28;20640;-73
2021/10/02 03:36:28;;;;;;;0.97;0.97;;;;;;;11.77;100.00;100144.56;5091754;28;20704;-73
2021/10/02 03:38:54;;;;;;;1.60;0.80;;;;;;;11.77;100.00;100121.88;5091918;28;20256;-73
2021/10/02 03:41:19;;;;;;;0.70;0.70;;;;;;;11.78;100.00;100145.38;5091898;28;20625;-72
2021/10/02 03:43:45;;;;;;;1.60;0.80;;;;;;;11.79;100.00;100150.56;5091243;28;20257;-73
2021/10/02 03:46:10;;;;;;;0.97;0.93;;;;;;;11.77;100.00;100144.56;5091465;28;20265;-73
2021/10/02 03:48:36;;;;;;;0.97;0.87;;;;;;;11.72;100.00;100152.97;5091270;28;20212;-72
2021/10/02 03:51:01;;;;;;;0.97;0.93;;;;;;;11.66;100.00;100146.03;5091263;28;20174;-73
2021/10/02 03:53:28;;;;;;;1.30;0.93;;;;;;;11.68;100.00;100140.25;5091297;28;20644;-73
2021/10/02 03:55:55;;;;;;;1.50;1.30;;;;;;;11.63;100.00;100144.78;5091172;28;20223;-73
2021/10/02 03:58:20;;;;;;;1.10;1.03;;;;;;;11.63;100.00;100143.97;5091155;28;20178;-72
2021/10/02 04:00:46;;;;;;;1.57;1.27;;;;;;;11.63;100.00;100139.28;5072955;28;20169;-73
2021/10/02 04:03:11;;;;;;;1.90;1.03;;;;;;;11.66;100.00;100143.31;5091196;28;20260;-73
2021/10/02 04:05:36;;;;;;;1.90;1.17;;;;;;;11.66;100.00;100146.03;5090022;28;20188;-73
2021/10/02 04:08:02;;;;;;;2.13;1.40;;;;;;;11.62;100.00;100145.09;5090852;28;20197;-73
2021/10/02 04:10:27;;;;;;;1.67;1.57;;;;;;;11.63;100.00;100111.94;5090681;28;20202;-73
2021/10/02 04:12:52;;;;;;;2.37;1.17;;;;;;;11.67;100.00;100144.91;5090913;28;20527;-73
2021/10/02 04:15:18;;;;;;;1.13;1.00;;;;;;;11.68;100.00;100142.97;5090690;28;20656;-73
2021/10/02 04:17:43;;;;;;;1.17;0.90;;;;;;;11.67;100.00;100144.91;5090877;28;20178;-73
2021/10/02 04:20:09;;;;;;;1.07;1.00;;;;;;;11.63;100.00;100149.44;5091046;28;20171;-73
2021/10/02 04:22:35;;;;;;;3.13;1.47;;;;;;;11.61;100.00;100147.03;5072626;28;20184;-73
2021/10/02 04:25:00;;;;;;;1.80;0.83;;;;;;;11.67;100.00;100141.38;5090535;28;20165;-73
2021/10/02 04:27:26;;;;;;;1.47;1.37;;;;;;;11.65;100.00;100141.69;5090536;28;20264;-73
2021/10/02 04:29:51;;;;;;;0.70;0.70;;;;;;;11.72;100.00;100142.03;5090736;28;20253;-73
2021/10/02 04:32:16;;;;;;;0.87;0.83;;;;;;;11.77;100.00;100147.31;5090727;28;20178;-73
2021/10/02 04:34:42;;;;;;;1.10;1.00;;;;;;;11.79;100.00;100142.34;5090472;28;20504;-73
2021/10/02 04:37:08;;;;;;;2.03;0.90;;;;;;;11.80;100.00;100146.69;5090601;28;20730;-73
2021/10/02 04:39:33;;;;;;;1.93;1.07;;;;;;;11.81;100.00;100153.75;5090764;28;20175;-72
2021/10/02 04:41:59;;;;;;;2.87;0.90;;;;;;;11.84;100.00;100141.34;5090686;28;20212;-73
2021/10/02 04:44:24;;;;;;;2.20;0.83;;;;;;;11.89;100.00;100138.44;5072152;28;20201;-73
2021/10/02 04:46:49;;;;;;;0.83;0.80;;;;;;;11.97;100.00;100150.50;5090488;28;20265;-73
2021/10/02 04:49:15;;;;;;;1.00;1.00;;;;;;;12.00;100.00;100145.16;5090465;28;20201;-73
2021/10/02 04:51:40;;;;;;;1.03;0.90;;;;;;;12.05;100.00;100150.47;5090378;28;20572;-73
2021/10/02 04:54:05;;;;;;;0.70;0.70;;;;;;;12.14;100.00;100145.75;5090168;28;20166;-73
2021/10/02 04:56:32;;;;;;;1.20;1.00;;;;;;;12.23;100.00;100142.97;5090336;28;20170;-73
2021/10/02 04:58:58;;;;;;;0.70;0.70;;;;;;;12.30;100.00;100147.94;5090339;28;20181;-73
2021/10/02 05:01:23;;;;;;;1.03;0.93;;;;;;;12.28;100.00;100140.03;5090355;28;20530;-73
2021/10/02 05:03:49;;;;;;;2.27;1.00;;;;;;;12.29;100.00;100138.91;5090314;28;20178;-73
2021/10/02 05:06:14;;;;;;;1.53;1.00;;;;;;;12.27;100.00;100127.47;5089943;28;20188;-73
2021/10/02 05:08:40;;;;;;;1.80;0.80;;;;;;;12.32;100.00;100124.56;5089970;28;20198;-73
2021/10/02 05:11:06;;;;;;;0.80;0.80;;;;;;;12.24;100.00;100121.88;5072076;28;20261;-73
2021/10/02 05:13:34;;;;;;;0.90;0.90;;;;;;;12.05;100.00;100114.88;5090148;28;20174;-73
2021/10/02 05:16:00;;;;;;;1.10;1.00;;;;;;;11.92;100.00;100121.38;5086275;28;20399;-73
2021/10/02 05:18:26;;;;;;;0.73;0.73;;;;;;;11.81;100.00;100125.59;5092646;28;20181;-73
2021/10/02 05:20:51;;;;;;;1.33;1.20;;;;;;;11.69;100.00;100120.75;5094087;28;20170;-73
2021/10/02 05:23:17;;;;;;;0.80;0.80;;;;;;;11.62;100.00;100093.09;5094164;28;20185;-73
2021/10/02 05:25:42;;;;;;;0.97;0.87;;;;;;;11.60;100.00;100093.44;5093926;28;20173;-76
2021/10/02 05:28:08;;;;;;;1.70;1.03;;;;;;;11.59;100.00;100126.59;5075881;28;20229;-72
2021/10/02 05:30:33;;;;;;;1.03;0.80;;;;;;;11.59;100.00;100121.94;5094032;28;20178;-72
2021/10/02 05:32:58;;;;;;;0.80;0.70;;;;;;;11.59;100.00;100126.59;5093950;28;20181;-72
2021/10/02 05:35:24;;;;;;;0.90;0.73;;;;;;;11.63;100.00;100116.59;5093760;28;20178;-73
2021/10/02 05:37:49;;;;;;;1.10;0.60;;;;;;;11.60;100.00;100103.59;5094330;28;20227;-73
2021/10/02 05:40:15;;;;;;;0.50;0.50;;;;;;;11.67;100.00;100103.06;5093941;28;20166;-72
2021/10/02 05:42:40;;;;;;;1.70;1.00;;;;;;;11.63;100.00;100101.00;5093937;28;20170;-72
2021/10/02 05:45:06;;;;;;;1.60;0.70;;;;;;;11.58;100.00;100106.66;5093700;28;20827;-72
2021/10/02 05:47:32;;;;;;;1.43;1.00;;;;;;;11.58;100.00;100112.13;5093675;28;20174;-72
2021/10/02 05:49:58;;;;;;;2.37;0.80;;;;;;;11.56;100.00;100119.03;5093705;28;20208;-72
2021/10/02 05:52:23;;;;;;;1.13;0.80;;;;;;;11.56;100.00;100117.09;5093540;28;20182;-74
2021/10/02 05:54:48;;;;;;;1.07;0.80;;;;;;;11.56;100.00;100117.09;5093319;28;20299;-72
2021/10/02 05:57:14;;;;;;;0.97;0.73;;;;;;;11.61;100.00;100118.88;5093501;28;20174;-72
2021/10/02 05:59:39;;;;;;;0.47;0.47;;;;;;;11.65;100.00;100124.47;5093618;28;20178;-72
2021/10/02 06:02:05;;;;;;;0.73;0.73;;;;;;;11.68;100.00;100135.56;5093276;28;20178;-73
2021/10/02 06:04:30;;;;;;;0.67;0.67;;;;;;;11.72;100.00;100136.56;5093039;28;20610;-73
2021/10/02 06:06:55;;;;;;;1.80;1.03;;;;;;;11.77;100.00;100138.28;5093049;28;20182;-73
2021/10/02 06:09:21;;;;;;;0.87;0.80;;;;;;;11.79;100.00;100131.38;5093160;28;20212;-76
2021/10/02 06:11:46;;;;;;;0.87;0.67;;;;;;;11.82;100.00;100136.22;5093203;28;20178;-75
2021/10/02 06:14:12;;;;;;;1.47;1.37;;;;;;;11.88;100.00;100140.38;5093398;28;20515;-75
2021/10/02 06:16:38;;;;;;;2.03;1.00;;;;;;;11.93;100.00;100135.84;5093413;28;20569;-75
2021/10/02 06:19:05;;;;;;;1.60;1.30;;;;;;;11.97;100.00;100142.28;5093503;28;20264;-75
2021/10/02 06:21:30;;;;;;;1.00;0.90;;;;;;;11.99;100.00;100140.81;5093077;28;20174;-75
2021/10/02 06:23:58;;;;;;;1.20;1.10;;;;;;;12.03;100.00;100144.53;5074602;28;20226;-75
2021/10/02 06:26:25;;;;;;;1.10;1.00;;;;;;;12.05;100.00;100144.19;5092990;28;20177;-74
2021/10/02 06:28:50;;;;;;;0.60;0.60;;;;;;;12.09;100.00;100153.34;5092046;28;20197;-77
2021/10/02 06:31:16;;;;;;;1.43;0.90;;;;;;;12.10;100.00;100154.94;5092610;28;20331;-76
2021/10/02 06:33:41;;;;;;;1.90;1.03;;;;;;;12.09;100.00;100156.09;5092716;28;20196;-75
2021/10/02 06:36:06;;;;;;;0.73;0.73;;;;;;;12.11;100.00;100162.84;5092691;28;20205;-75
2021/10/02 06:38:32;;;;;;;0.80;0.80;;;;;;;12.10;100.00;100166.72;5092845;28;20181;-73
2021/10/02 06:40:57;;;;;;;1.37;0.80;;;;;;;12.14;100.00;100162.16;5092970;28;20569;-75
2021/10/02 06:43:23;;;;;;;1.40;1.13;;;;;;;12.14;100.00;100166.84;5092479;28;20174;-76
2021/10/02 06:45:48;;;;;;;1.33;1.23;;;;;;;12.17;100.00;100167.00;5092526;28;20660;-75
2021/10/02 06:48:13;;;;;;;1.23;1.13;;;;;;;12.26;100.00;100171.63;5092446;28;20284;-76
2021/10/02 06:50:39;;;;;;;2.50;2.10;;;;;;;12.30;100.00;100178.88;5092532;28;20170;-74
2021/10/02 06:53:05;;;;;;;5.27;4.77;;;;;;;12.34;100.00;100184.50;5092441;28;20688;-76
2021/10/02 06:55:30;;;;;;;2.87;2.20;;;;;;;12.37;100.00;100187.38;5092059;28;20291;-75
2021/10/02 06:57:55;;;;;;;3.47;3.17;;;;;;;12.43;100.00;100183.31;5092474;28;20174;-75
2021/10/02 07:00:20;;;;;;;8.87;7.93;;;;;;;12.48;100.00;100176.84;5092325;28;20216;-74
2021/10/02 07:02:46;;;;;;;4.33;3.00;;;;;;;12.50;100.00;100178.13;5092186;28;20197;-73
2021/10/02 07:05:14;;;;;;;2.77;1.57;;;;;;;12.55;100.00;100163.44;5092081;28;20182;-73
2021/10/02 07:07:40;;;;;;;1.10;1.00;;;;;;;12.57;100.00;100161.16;5091807;28;20185;-73
2021/10/02 07:10:06;;;;;;;0.60;0.60;;;;;;;12.58;100.00;100154.53;5091998;28;20622;-73
2021/10/02 07:12:32;;;;;;;1.30;1.20;;;;;;;12.62;100.00;100157.44;5091845;28;20272;-72
2021/10/02 07:14:57;;;;;;;0.90;0.60;;;;;;;12.66;100.00;100147.41;5091884;28;20261;-72
2021/10/02 07:17:22;;;;;;;0.73;0.73;;;;;;;12.73;100.00;100158.63;5092097;28;20173;-72
2021/10/02 07:19:48;;;;;;;0.70;0.70;;;;;;;12.79;100.00;100158.13;5073621;28;20194;-72
2021/10/02 07:22:13;;;;;;;2.53;1.60;;;;;;;12.85;100.00;100155.97;5091482;28;20182;-72
2021/10/02 07:24:39;;;;;;;1.40;1.00;;;;;;;12.92;100.00;100149.97;5091701;28;20594;-75
2021/10/02 07:27:05;;;;;;;1.23;1.03;;;;;;;12.97;100.00;100158.78;5091729;28;20220;-76
2021/10/02 07:29:30;;;;;;;1.90;1.30;;;;;;;13.01;100.00;100156.97;5091722;28;20617;-75
2021/10/02 07:31:55;;;;;;;1.97;1.20;;;;;;;13.09;100.00;100153.38;5091648;28;20285;-75
2021/10/02 07:34:21;;;;;;;1.57;1.30;;;;;;;13.16;100.00;100146.53;5091444;28;20224;-77
2021/10/02 07:36:46;;;;;;;0.80;0.80;;;;;;;13.23;100.00;100144.91;5091372;28;20173;-77
2021/10/02 07:39:12;;;;;;;1.00;0.90;;;;;;;13.34;100.00;100154.34;5091397;28;20176;-74
2021/10/02 07:41:40;;;;;;;1.00;0.90;;;;;;;13.42;100.00;100160.88;5091335;28;20166;-76
2021/10/02 07:44:06;;;;;;;1.97;1.40;;;;;;;13.54;100.00;100165.59;5091240;28;20244;-73
2021/10/02 07:46:33;;;;;;;1.70;1.60;;;;;;;13.67;100.00;100156.25;5091298;28;20180;-72
2021/10/02 07:48:58;;;;;;;1.20;0.97;;;;;;;13.77;100.00;100158.59;5091376;28;20258;-73
2021/10/02 07:51:25;;;;;;;0.80;0.60;;;;;;;13.85;100.00;100143.13;5073170;28;20177;-73
2021/10/02 07:53:52;;;;;;;0.80;0.80;;;;;;;13.96;100.00;100147.84;5090927;28;20250;-73
2021/10/02 07:56:19;;;;;;;0.73;0.73;;;;;;;14.06;100.00;100156.81;5091486;28;20513;-73
2021/10/02 07:58:47;;;;;;;1.00;0.90;;;;;;;14.05;100.00;100144.22;5091222;28;20182;-73
2021/10/02 08:01:12;;;;;;;2.20;1.20;;;;;;;14.04;100.00;100143.41;5091400;28;20542;-73
2021/10/02 08:03:38;;;;;;;1.40;1.23;;;;;;;14.02;100.00;100153.13;5090957;28;20182;-73
2021/10/02 08:06:04;;;;;;;0.70;0.60;;;;;;;13.99;100.00;100157.34;5091004;28;20181;-73
2021/10/02 08:08:29;;;;;;;1.07;0.80;;;;;;;13.92;100.00;100149.69;5072344;28;20259;-73
2021/10/02 08:10:56;;;;;;;0.70;0.63;;;;;;;13.92;100.00;100151.63;5090910;28;20229;-73
2021/10/02 08:13:21;;;;;;;1.97;1.00;;;;;;;13.91;100.00;100139.06;5091071;28;20260;-73
2021/10/02 08:15:54;;;;;;;0.83;0.80;;;;;;;13.92;100.00;100137.91;5090705;28;20180;-73
2021/10/02 08:18:23;;;;;;;0.83;0.83;;;;;;;14.00;100.00;100146.03;5072638;28;20181;-73
2021/10/02 08:20:49;;;;;;;0.50;0.50;;;;;;;14.10;100.00;100150.28;5090757;28;20166;-72
2021/10/02 08:23:17;;;;;;;0.90;0.83;;;;;;;14.19;100.00;100140.00;5091220;28;20243;-73
2021/10/02 08:25:48;;;;;;;1.27;0.90;;;;;;;14.37;100.00;100143.31;5090428;28;20598;-73
2021/10/02 08:28:15;;;;;;;1.70;0.80;;;;;;;14.40;100.00;100139.88;5090324;28;20656;-72
2021/10/02 08:30:42;;;;;;;1.70;0.60;;;;;;;14.51;99.91;100143.00;5090517;28;20189;-73
2021/10/02 08:33:10;;;;;;;0.77;0.70;;;;;;;14.60;98.87;100140.91;5088405;28;20560;-72
2021/10/02 08:35:36;;;;;;;0.80;0.70;;;;;;;14.60;98.22;100143.66;5089986;28;20213;-73
2021/10/02 08:38:01;;;;;;;1.03;0.93;;;;;;;14.62;98.36;100140.56;5090657;28;20234;-73
2021/10/02 08:40:27;;;;;;;7.97;0.80;;;;;;;14.55;96.45;100144.69;5090934;28;20181;-72
2021/10/02 08:42:54;;;;;;;0.53;0.53;;;;;;;14.49;98.42;100140.59;5090772;28;20178;-72
2021/10/02 08:45:20;;;;;;;1.23;0.90;;;;;;;14.33;98.20;100142.41;5090594;28;20675;-73
2021/10/02 08:47:47;;;;;;;0.60;0.60;;;;;;;14.24;98.77;100138.94;5090552;28;20550;-74
2021/10/02 08:50:17;;;;;;;0.80;0.80;;;;;;;14.25;100.00;100135.06;5091104;28;20672;-75
2021/10/02 08:52:44;;;;;;;1.17;0.70;;;;;;;14.28;100.00;100134.38;5092713;28;20173;-73
2021/10/02 08:55:10;;;;;;;1.13;0.83;;;;;;;14.37;100.00;100139.75;5076412;28;20185;-74
2021/10/02 08:57:37;;;;;;;1.23;1.00;;;;;;;14.47;100.00;100142.88;5094579;28;20178;-73
2021/10/02 09:00:13;;;;;;;0.93;0.87;;;;;;;14.52;100.00;100134.41;5094710;28;20174;-74
2021/10/02 09:02:39;;;;;;;0.80;0.73;;;;;;;14.59;99.75;100136.53;5094588;28;20659;-73
2021/10/02 09:05:07;;;;;;;1.33;0.80;;;;;;;14.61;99.29;100125.19;5094318;28;20181;-74
2021/10/02 09:07:34;;;;;;;0.87;0.87;;;;;;;14.71;100.00;100133.78;5094156;28;20258;-74
2021/10/02 09:10:02;;;;;;;1.33;0.90;;;;;;;14.84;99.96;100142.81;5094259;28;20684;-74
2021/10/02 09:12:29;;;;;;;2.40;0.73;;;;;;;14.92;97.33;100128.13;5094177;28;20177;-74
2021/10/02 09:14:56;;;;;;;1.00;0.97;;;;;;;14.99;97.69;100131.09;5093781;28;20177;-74
2021/10/02 09:17:22;;;;;;;1.17;1.07;;;;;;;15.06;96.23;100131.31;5094450;28;20645;-73
2021/10/02 09:19:49;;;;;;;0.60;0.60;;;;;;;15.07;95.99;100127.41;5093871;28;20170;-74
2021/10/02 09:22:18;;;;;;;0.50;0.50;;;;;;;15.09;96.79;100124.31;5094034;28;20452;-74
2021/10/02 09:24:45;;;;;;;0.60;0.60;;;;;;;15.06;94.74;100127.75;5093774;28;20622;-74
2021/10/02 09:27:19;;;;;;;1.07;0.77;;;;;;;15.06;95.01;100119.50;5093740;28;20182;-74
2021/10/02 09:29:56;;;;;;;0.53;0.53;;;;;;;15.15;95.66;100118.19;5094046;28;20205;-74
2021/10/02 09:32:32;;;;;;;0.47;0.47;;;;;;;15.23;94.95;100112.91;5094211;28;20629;-74
2021/10/02 09:35:07;;;;;;;1.30;0.77;;;;;;;15.34;95.54;100109.28;5093665;28;20208;-74
2021/10/02 09:37:34;;;;;;;0.40;0.40;;;;;;;15.51;93.56;100110.91;5093551;28;20182;-74
2021/10/02 09:40:13;;;;;;;0.97;0.70;;;;;;;15.42;92.47;100104.75;5093950;28;20178;-74
2021/10/02 09:42:51;;;;;;;0.60;0.60;;;;;;;15.49;93.38;100107.72;5093881;28;20197;-74
2021/10/02 09:45:27;;;;;;;0.40;0.40;;;;;;;15.54;92.44;100101.94;5093413;28;20165;-75
2021/10/02 09:48:00;;;;;;;0.63;0.57;;;;;;;15.69;93.67;100103.16;5093340;28;20341;-74
2021/10/02 09:50:29;;;;;;;0.40;0.40;;;;;;;15.70;90.53;100100.03;5093291;28;20181;-75
2021/10/02 09:53:08;;;;;;;0.33;0.33;;;;;;;15.67;88.60;100105.47;5093756;28;20534;-74
2021/10/02 09:55:54;;;;;;;0.70;0.53;;;;;;;15.75;90.23;100110.78;5093178;28;20169;-76
2021/10/02 09:58:28;;;;;;;0.83;0.60;;;;;;;15.86;90.33;100094.53;5092476;28;20185;-75
2021/10/02 10:00:55;;;;;;;0.47;0.47;;;;;;;15.88;90.42;100094.97;5093179;28;20177;-75
2021/10/02 10:03:21;;;;;;;0.50;0.50;;;;;;;15.92;90.60;100090.38;5092117;28;20158;-75
2021/10/02 10:05:49;;;;;;;0.63;0.57;;;;;;;15.77;88.83;100085.66;5092555;28;20556;-76
2021/10/02 10:08:28;;;;;;;1.63;0.60;;;;;;;15.72;90.89;100080.41;5074632;28;20190;-75
2021/10/02 10:11:11;;;;;;;0.40;0.40;;;;;;;15.73;90.11;100080.03;5093107;28;20173;-75
2021/10/02 10:13:38;;;;;;;0.50;0.50;;;;;;;15.73;89.33;100093.03;5092816;28;20177;-75
2021/10/02 10:16:08;;;;;;;0.30;0.30;;;;;;;15.75;90.27;100090.72;5092805;28;20759;-75
2021/10/02 10:18:36;;;;;;;0.93;0.40;;;;;;;15.67;90.63;100095.25;5092811;28;20645;-75
2021/10/02 10:21:05;;;;;;;1.83;0.80;;;;;;;15.65;90.29;100086.53;5092615;28;20173;-76
2021/10/02 10:23:32;;;;;;;0.60;0.60;;;;;;;15.68;90.72;100085.03;5092788;28;20169;-75
2021/10/02 10:26:09;;;;;;;0.70;0.50;;;;;;;15.66;90.86;100084.59;5092933;28;20194;-76
2021/10/02 10:28:37;;;;;;;0.53;0.47;;;;;;;15.62;91.33;100086.44;5092535;28;20288;-75
2021/10/02 10:31:11;;;;;;;0.60;0.60;;;;;;;15.69;92.34;100073.66;5092626;28;20170;-76
2021/10/02 10:33:38;;;;;;;0.87;0.60;;;;;;;15.75;89.68;100079.69;5074340;28;20589;-75
2021/10/02 10:36:03;;;;;;;1.07;0.63;;;;;;;15.83;90.61;100080.69;5092547;28;20166;-76
2021/10/02 10:38:30;;;;;;;0.80;0.80;;;;;;;15.85;90.37;100083.88;5092550;28;20901;-75
2021/10/02 10:40:56;;;;;;;0.87;0.60;;;;;;;16.00;90.39;100078.34;5092529;28;20211;-75
2021/10/02 10:43:23;;;;;;;0.60;0.60;;;;;;;15.96;87.71;100073.94;5092339;28;20170;-76
2021/10/02 10:45:48;;;;;;;0.50;0.40;;;;;;;15.90;87.49;100069.81;5092043;28;20174;-75
2021/10/02 10:48:14;;;;;;;1.03;0.80;;;;;;;15.93;89.36;100064.41;5092457;28;20209;-76
2021/10/02 10:50:42;;;;;;;0.90;0.90;;;;;;;16.13;89.94;100194.03;5092244;28;20641;-75
2021/10/02 10:53:08;;;;;;;0.60;0.60;;;;;;;16.38;88.58;100065.88;5092173;28;20193;-75
2021/10/02 10:55:51;;;;;;;0.77;0.77;;;;;;;16.61;86.82;100071.47;5091884;28;20170;-75
2021/10/02 10:58:37;;;;;;;0.67;0.67;;;;;;;16.71;85.28;100070.94;5092525;28;20182;-75
2021/10/02 11:01:08;;;;;;;0.60;0.60;;;;;;;16.88;84.85;100067.75;5091863;28;20201;-76
2021/10/02 11:03:47;;;;;;;0.60;0.60;;;;;;;16.90;85.01;100064.63;5091826;28;20574;-75
2021/10/02 11:06:15;;;;;;;0.53;0.53;;;;;;;16.99;84.02;100059.69;5091815;28;20186;-75
2021/10/02 11:09:01;;;;;;;0.93;0.37;;;;;;;16.77;82.95;100060.41;5091559;28;20326;-76
2021/10/02 11:11:49;;;;;;;0.50;0.50;;;;;;;16.64;84.97;100059.75;5091842;28;20696;-75
2021/10/02 11:14:16;;;;;;;0.37;0.37;;;;;;;16.52;84.02;100052.41;5091524;28;20180;-75
2021/10/02 11:16:44;;;;;;;0.70;0.70;;;;;;;16.44;85.88;100041.56;5091362;28;20603;-76
2021/10/02 11:19:35;;;;;;;0.30;0.30;;;;;;;16.22;84.07;100032.81;5091535;28;20597;-75
2021/10/02 11:22:26;;;;;;;0.50;0.50;;;;;;;16.15;85.71;100031.84;5091659;28;20255;-75
2021/10/02 11:24:51;;;;;;;1.57;0.70;;;;;;;16.16;85.40;100017.69;5091821;28;20165;-75
2021/10/02 11:27:22;;;;;;;1.43;0.80;;;;;;;16.19;85.40;100022.50;5091475;28;20530;-75
2021/10/02 11:29:48;;;;;;;0.70;0.70;;;;;;;16.28;86.86;100017.59;5091420;28;20217;-76
2021/10/02 11:32:30;;;;;;;0.73;0.63;;;;;;;16.31;85.95;100016.84;5091438;28;20169;-75
2021/10/02 11:35:17;;;;;;;0.60;0.60;;;;;;;16.26;86.02;100017.16;5091104;28;20645;-75
2021/10/02 11:37:47;;;;;;;0.67;0.60;;;;;;;16.27;87.27;100006.91;5090972;28;20188;-75
2021/10/02 11:40:31;;;;;;;0.70;0.70;;;;;;;16.42;87.62;100019.84;5090759;28;20190;-75
2021/10/02 11:43:12;;;;;;;2.57;0.80;;;;;;;16.60;88.42;99996.22;5072566;28;20178;-75
2021/10/02 11:45:39;;;;;;;0.40;0.40;;;;;;;16.86;88.06;100009.38;5090924;28;20308;-75
2021/10/02 11:48:30;;;;;;;0.80;0.60;;;;;;;16.92;85.57;100005.19;5072671;28;20208;-76
2021/10/02 11:51:27;;;;;;;0.80;0.80;;;;;;;17.09;83.92;100003.91;5091143;28;20256;-76
2021/10/02 11:53:59;;;;;;;0.80;0.67;;;;;;;17.27;82.77;99995.16;5090786;28;20189;-76
2021/10/02 11:56:29;;;;;;;2.20;0.70;;;;;;;17.27;81.99;99992.38;5090968;28;20193;-76
2021/10/02 11:58:59;;;;;;;1.10;0.80;;;;;;;17.30;82.47;99997.16;5091267;28;20165;-76
2021/10/02 12:01:28;;;;;;;0.80;0.80;;;;;;;17.32;82.62;99990.09;5096303;28;20686;-76
2021/10/02 12:04:03;;;;;;;1.10;0.80;;;;;;;17.04;82.67;99984.06;5095276;28;20181;-76
2021/10/02 12:06:30;;;;;;;0.60;0.60;;;;;;;17.11;83.36;99981.47;5090513;28;20657;-76
2021/10/02 12:08:57;;;;;;;1.07;0.53;;;;;;;17.23;82.65;99978.53;5090736;28;20209;-76
2021/10/02 12:11:23;;;;;;;0.77;0.77;;;;;;;17.33;83.42;99974.34;5090784;28;20166;-76
2021/10/02 12:13:54;;;;;;;0.63;0.53;;;;;;;17.49;82.85;99973.03;5090479;28;20215;-77
2021/10/02 12:16:21;;;;;;;0.87;0.87;;;;;;;17.49;80.82;99975.00;5090773;28;20651;-76
2021/10/02 12:19:06;;;;;;;1.83;0.87;;;;;;;17.38;82.18;99974.84;5090571;28;20174;-76